Time;durP1;ratioP1;P1;durP2;ratioP2;P2;SDS_P1;SDS_P2;PMS_P1;PMS_P2;Temp;Humidity;BMP_temperature;BMP_pressure;BME280_temperature;BME280_humidity;BME280_pressure;Samples;Min_cycle;Max_cycle;Signal;HPM_P1;HPM_P2
2023/04/18 00:02:49;;;;;;;21.37;15.70;;;;;;;11.59;100.00;98921.66;5093018;28;20231;-49
2023/04/18 00:05:43;;;;;;;23.53;16.60;;;;;;;11.58;100.00;98929.53;5090984;28;20604;-48
2023/04/18 00:08:35;;;;;;;22.67;16.20;;;;;;;11.54;100.00;98933.16;5089841;28;20601;-49
2023/04/18 00:11:33;;;;;;;19.47;14.97;;;;;;;11.36;100.00;98916.56;5090403;28;20195;-48
2023/04/18 00:14:16;;;;;;;18.97;15.17;;;;;;;11.45;100.00;98939.56;5091043;28;20686;-48
2023/04/18 00:17:04;;;;;;;18.53;14.03;;;;;;;11.42;100.00;98938.84;5092444;28;20273;-49
2023/04/18 00:19:54;;;;;;;23.87;15.27;;;;;;;11.29;100.00;98933.31;5091424;28;20204;-48
2023/04/18 00:22:42;;;;;;;21.27;14.93;;;;;;;11.32;100.00;98940.13;5092277;28;20203;-48
2023/04/18 00:28:35;;;;;;;20.43;14.93;;;;;;;11.38;100.00;98940.75;5091405;28;20203;-55
2023/04/18 00:31:25;;;;;;;22.87;14.63;;;;;;;11.40;100.00;98946.69;5089668;28;20675;-49
2023/04/18 00:34:19;;;;;;;21.23;14.67;;;;;;;11.35;100.00;98943.47;5092044;28;20231;-49
2023/04/18 00:36:57;;;;;;;19.90;14.80;;;;;;;11.38;100.00;98943.34;5091767;28;20475;-49
2023/04/18 00:39:44;;;;;;;24.27;17.00;;;;;;;11.35;100.00;98933.06;5090957;28;20248;-49
2023/04/18 00:42:36;;;;;;;20.20;15.90;;;;;;;11.21;100.00;98940.56;5104741;28;20648;-48
2023/04/18 00:45:36;;;;;;;23.63;15.67;;;;;;;11.24;100.00;98940.47;5112514;28;20685;-55
2023/04/18 00:48:14;;;;;;;22.33;16.23;;;;;;;11.21;100.00;98931.03;5110352;28;20241;-55
2023/04/18 00:51:03;;;;;;;23.63;15.37;;;;;;;11.27;100.00;98932.56;5111835;28;20198;-55
2023/04/18 00:53:58;;;;;;;23.37;16.90;;;;;;;11.25;100.00;98934.38;5111532;28;20198;-55
2023/04/18 00:56:52;;;;;;;28.67;17.37;;;;;;;11.12;100.00;98939.19;5109261;28;20199;-54
2023/04/18 00:59:47;;;;;;;28.90;17.77;;;;;;;11.10;100.00;98933.22;5111510;28;20195;-55
2023/04/18 01:02:58;;;;;;;;;;;;;;;;;;;;;
2023/04/18 01:05:57;;;;;;;;;;;;;;;;;;;;;
2023/04/18 01:08:57;;;;;;;25.90;18.00;;;;;;;11.18;100.00;98925.97;5111502;28;20682;-55
2023/04/18 01:14:30;;;;;;;27.23;18.77;;;;;;;11.18;100.00;98922.50;5111508;28;20195;-48
2023/04/18 01:17:16;;;;;;;31.70;18.73;;;;;;;11.23;100.00;98925.78;5111532;28;20252;-48
2023/04/18 01:20:16;;;;;;;29.00;19.20;;;;;;;11.28;100.00;98935.09;5110064;28;20198;-55
2023/04/18 01:23:04;;;;;;;29.87;19.30;;;;;;;11.25;100.00;98923.97;5110047;28;20282;-55
2023/04/18 01:26:07;;;;;;;33.90;19.13;;;;;;;11.18;100.00;98925.09;5110235;28;20252;-54
2023/04/18 01:28:55;;;;;;;30.30;18.90;;;;;;;11.28;100.00;98923.84;5111582;28;20202;-55
2023/04/18 01:31:36;;;;;;;27.20;18.60;;;;;;;11.21;100.00;98925.84;5108745;28;20499;-55
2023/04/18 01:34:34;;;;;;;;;;;;;;;;;;;;;
2023/04/18 01:37:20;;;;;;;29.37;18.20;;;;;;;11.12;100.00;98926.22;5110572;28;20201;-55
2023/04/18 01:40:18;;;;;;;;;;;;;;;;;;;;;
2023/04/18 01:43:14;;;;;;;35.13;18.77;;;;;;;11.12;100.00;98926.22;5109640;28;20237;-49
2023/04/18 01:45:57;;;;;;;30.87;19.90;;;;;;;11.09;100.00;98922.88;5108232;28;20281;-48
2023/04/18 01:48:46;;;;;;;34.00;18.93;;;;;;;11.12;100.00;98926.22;5110305;28;20578;-49
2023/04/18 01:54:32;;;;;;;29.47;18.23;;;;;;;11.16;100.00;98926.94;5110820;28;20202;-49
2023/04/18 01:57:21;;;;;;;32.60;19.27;;;;;;;10.85;100.00;98884.00;5109227;28;20194;-48
2023/04/18 02:00:33;;;;;;;32.20;18.83;;;;;;;11.03;100.00;98936.13;5108505;28;20690;-47
2023/04/18 02:03:24;;;;;;;33.70;19.90;;;;;;;11.02;100.00;98935.28;5109204;28;20636;-54
2023/04/18 02:06:14;;;;;;;34.30;19.57;;;;;;;11.03;100.00;98941.31;5110419;28;20222;-54
2023/04/18 02:09:11;;;;;;;31.70;19.67;;;;;;;10.97;100.00;98939.81;5108156;28;20559;-54
2023/04/18 02:12:09;;;;;;;24.43;17.50;;;;;;;10.82;100.00;98941.28;5110565;28;20693;-55
2023/04/18 02:15:09;;;;;;;27.63;15.70;;;;;;;10.87;100.00;98943.66;5108987;28;20294;-47
2023/04/18 02:18:13;;;;;;;33.13;17.23;;;;;;;10.88;100.00;98945.38;5107141;28;20230;-48
2023/04/18 02:21:10;;;;;;;30.37;16.67;;;;;;;10.88;100.00;98943.63;5105288;28;20213;-48
2023/04/18 02:24:04;;;;;;;27.83;15.80;;;;;;;10.94;100.00;98939.09;5110252;28;20650;-49
2023/04/18 02:27:05;;;;;;;24.47;14.87;;;;;;;10.93;100.00;98938.25;5107482;28;20218;-50
2023/04/18 02:29:59;;;;;;;30.67;17.03;;;;;;;10.93;100.00;98943.44;5110209;28;20205;-48
2023/04/18 02:32:45;;;;;;;26.00;15.80;;;;;;;10.96;100.00;98932.91;5107190;28;20281;-49
2023/04/18 02:36:00;;;;;;;27.30;15.00;;;;;;;10.89;100.00;98937.53;5107462;28;20670;-49
2023/04/18 02:38:51;;;;;;;28.87;15.73;;;;;;;10.91;100.00;98934.88;5108241;28;20198;-53
2023/04/18 02:41:39;;;;;;;32.87;15.30;;;;;;;10.79;100.00;98938.78;5109677;28;20195;-48
2023/04/18 02:44:29;;;;;;;27.87;15.57;;;;;;;10.81;100.00;98943.91;5110051;28;20729;-49
2023/04/18 02:47:22;;;;;;;23.70;13.57;;;;;;;10.79;100.00;98937.94;5109404;28;20233;-48
2023/04/18 02:50:09;;;;;;;29.00;15.60;;;;;;;10.80;100.00;98937.03;5109934;28;20562;-48
2023/04/18 02:53:05;;;;;;;30.33;16.00;;;;;;;10.78;100.00;98942.28;5109850;28;20205;-49
2023/04/18 02:56:09;;;;;;;26.03;14.60;;;;;;;10.73;100.00;98938.16;5109965;28;20270;-47
2023/04/18 02:59:04;;;;;;;27.33;14.77;;;;;;;10.80;100.00;98940.47;5104866;28;20199;-49
2023/04/18 03:01:45;;;;;;;27.93;14.63;;;;;;;10.88;100.00;98958.34;5089484;28;20195;-48
2023/04/18 03:04:36;;;;;;;24.70;14.60;;;;;;;10.84;100.00;98951.56;5088316;28;20198;-50
2023/04/18 03:07:12;;;;;;;21.50;13.50;;;;;;;10.87;100.00;98959.25;5085813;28;20251;-48
2023/04/18 03:09:52;;;;;;;23.57;13.23;;;;;;;10.85;100.00;98954.09;5088851;28;20671;-49
2023/04/18 03:12:38;;;;;;;18.10;10.73;;;;;;;10.83;100.00;98961.13;5089210;28;20203;-49
2023/04/18 03:15:43;;;;;;;15.47;10.30;;;;;;;10.70;100.00;98953.88;5079443;28;20282;-49
2023/04/18 03:18:15;;;;;;;17.70;12.10;;;;;;;10.59;100.00;98954.28;5089657;28;20198;-48
2023/04/18 03:20:47;;;;;;;17.80;12.23;;;;;;;10.59;100.00;98951.69;5089488;28;20202;-54
2023/04/18 03:23:21;;;;;;;21.30;12.47;;;;;;;10.65;100.00;98955.78;5088373;28;20195;-55
2023/04/18 03:26:05;;;;;;;14.27;11.43;;;;;;;10.66;100.00;98949.69;5089553;28;20195;-48
2023/04/18 03:28:36;;;;;;;16.07;11.70;;;;;;;10.65;100.00;98955.78;5089156;28;20278;-48
2023/04/18 03:31:04;;;;;;;19.23;11.17;;;;;;;10.65;100.00;98956.63;5089277;28;20290;-54
2023/04/18 03:33:35;;;;;;;18.33;11.33;;;;;;;10.65;100.00;98959.22;5088694;28;20682;-54
2023/04/18 03:36:10;;;;;;;16.60;11.03;;;;;;;10.62;100.00;98948.09;5090824;28;20199;-54
2023/04/18 03:38:52;;;;;;;18.50;12.07;;;;;;;10.53;100.00;98951.91;5102334;28;20209;-48
2023/04/18 03:41:44;;;;;;;18.53;11.37;;;;;;;10.48;100.00;98948.66;5109029;28;20187;-47
2023/04/18 03:44:38;;;;;;;17.53;12.27;;;;;;;10.49;100.00;98960.72;5108679;28;20198;-48
2023/04/18 03:47:30;;;;;;;19.20;11.57;;;;;;;10.54;100.00;98953.59;5109023;28;20222;-47
2023/04/18 03:50:23;;;;;;;22.63;12.33;;;;;;;10.59;100.00;98963.81;5109427;28;20423;-48
2023/04/18 03:53:11;;;;;;;17.57;11.83;;;;;;;10.63;100.00;98963.63;5108597;28;20199;-53
2023/04/18 03:56:05;;;;;;;26.00;13.23;;;;;;;10.59;100.00;98967.25;5106635;28;20191;-54
2023/04/18 03:58:35;;;;;;;19.87;13.03;;;;;;;10.63;100.00;98968.81;5107733;28;20202;-54
2023/04/18 04:01:17;;;;;;;17.13;12.87;;;;;;;10.67;100.00;98974.75;5089643;28;20282;-55
2023/04/18 04:04:05;;;;;;;22.90;13.63;;;;;;;10.68;100.00;98974.69;5086955;28;20239;-55
2023/04/18 04:06:50;;;;;;;22.23;14.10;;;;;;;10.69;100.00;98978.97;5088189;28;20333;-54
2023/04/18 04:09:45;;;;;;;25.90;13.10;;;;;;;10.67;100.00;98983.38;5086248;28;20675;-55
2023/04/18 04:12:42;;;;;;;20.03;13.97;;;;;;;10.66;100.00;98989.47;5089126;28;20278;-54
2023/04/18 04:15:33;;;;;;;26.77;15.93;;;;;;;10.73;100.00;98985.72;5089388;28;20708;-54
2023/04/18 04:24:06;;;;;;;29.03;16.37;;;;;;;10.97;100.00;98996.09;5091841;28;20300;-53
2023/04/18 04:26:55;;;;;;;31.80;15.67;;;;;;;10.99;100.00;98995.13;5090441;28;20318;-54
2023/04/18 04:29:42;;;;;;;29.40;18.30;;;;;;;10.89;100.00;98994.63;5091156;28;20695;-54
2023/04/18 04:32:52;;;;;;;31.77;17.10;;;;;;;10.98;100.00;98996.03;5091516;28;20199;-54
2023/04/18 04:38:29;;;;;;;24.20;16.67;;;;;;;11.02;100.00;98999.34;5090498;28;20195;-55
2023/04/18 04:40:59;;;;;;;28.20;16.97;;;;;;;11.10;100.00;99000.75;5092343;28;20199;-54
2023/04/18 04:43:55;;;;;;;33.30;18.17;;;;;;;11.15;100.00;98998.84;5091939;28;20284;-53
2023/04/18 04:46:56;;;;;;;31.10;17.97;;;;;;;11.23;100.00;99007.16;5090938;28;20196;-48
2023/04/18 04:50:07;;;;;;;34.53;17.73;;;;;;;11.09;100.00;99008.59;5090574;28;20210;-54
2023/04/18 04:52:43;;;;;;;30.77;19.13;;;;;;;11.16;100.00;99017.84;5091612;28;20203;-55
2023/04/18 04:55:30;;;;;;;27.77;19.03;;;;;;;11.21;100.00;99015.91;5089415;28;20194;-54
2023/04/18 05:00:57;;;;;;;36.43;22.10;;;;;;;11.17;100.00;99019.56;5087566;28;20202;-54
2023/04/18 05:03:44;;;;;;;29.53;21.03;;;;;;;11.15;100.00;99018.75;5090527;28;20191;-54
2023/04/18 05:06:42;;;;;;;35.97;21.93;;;;;;;11.22;100.00;99023.66;5091501;28;20199;-54
2023/04/18 05:12:45;;;;;;;41.37;24.10;;;;;;;11.17;100.00;99027.34;5091648;28;20191;-54
2023/04/18 05:15:32;;;;;;;40.60;24.03;;;;;;;11.29;100.00;99038.06;5091602;28;20287;-54
2023/04/18 05:21:23;;;;;;;38.70;24.50;;;;;;;11.35;100.00;99030.97;5090824;28;20637;-47
2023/04/18 05:24:18;;;;;;;44.13;23.03;;;;;;;11.41;100.00;99026.34;5090667;28;20203;-54
2023/04/18 05:30:07;;;;;;;35.43;24.63;;;;;;;11.38;100.00;99033.44;5090158;28;20651;-54
2023/04/18 05:32:55;;;;;;;44.07;25.87;;;;;;;11.44;100.00;99034.03;5088205;28;20195;-47
2023/04/18 05:35:28;;;;;;;44.20;27.23;;;;;;;11.52;100.00;99034.56;5090337;28;20222;-48
2023/04/18 05:38:10;;;;;;;34.87;22.50;;;;;;;11.61;100.00;99033.38;5090754;28;20253;-53
2023/04/18 05:40:50;;;;;;;38.83;24.10;;;;;;;11.63;100.00;99029.78;5103434;28;20690;-55
2023/04/18 05:43:26;;;;;;;37.93;22.27;;;;;;;11.63;100.00;99034.97;5110753;28;20245;-54
2023/04/18 05:46:05;;;;;;;40.70;24.00;;;;;;;11.66;100.00;99049.59;5110423;28;20275;-47
2023/04/18 05:48:38;;;;;;;34.73;23.07;;;;;;;11.67;100.00;99038.31;5097353;28;20218;-47
2023/04/18 05:51:11;;;;;;;38.73;24.03;;;;;;;11.77;100.00;99037.03;5089990;28;20300;-47
2023/04/18 05:53:46;;;;;;;32.50;21.00;;;;;;;11.84;100.00;99038.50;5089834;28;20783;-49
2023/04/18 05:56:16;;;;;;;34.87;22.27;;;;;;;11.79;100.00;99037.84;5091586;28;20242;-49
2023/04/18 05:58:54;;;;;;;38.63;22.07;;;;;;;11.76;100.00;99039.72;5106324;28;20261;-55
2023/04/18 06:01:31;;;;;;;33.53;21.67;;;;;;;11.79;100.00;99042.19;5095860;28;20226;-55
2023/04/18 06:04:09;;;;;;;37.20;23.17;;;;;;;11.81;100.00;99040.38;5086724;28;20311;-54
2023/04/18 06:06:53;;;;;;;31.33;20.17;;;;;;;11.80;100.00;99044.72;5108218;28;20281;-55
2023/04/18 06:09:45;;;;;;;33.70;21.57;;;;;;;11.86;100.00;99043.63;5110131;28;20289;-54
2023/04/18 06:12:20;;;;;;;33.17;22.27;;;;;;;11.80;100.00;99051.69;5109469;28;20202;-47
2023/04/18 06:14:59;;;;;;;35.23;21.00;;;;;;;11.83;100.00;99049.81;5096663;28;20218;-48
2023/04/18 06:17:45;;;;;;;27.93;17.50;;;;;;;11.91;100.00;99050.34;5092945;28;20195;-54
2023/04/18 06:20:31;;;;;;;30.27;18.27;;;;;;;11.76;100.00;99050.94;5086278;28;20207;-55
2023/04/18 06:23:22;;;;;;;35.50;18.93;;;;;;;11.73;100.00;99037.22;5090018;28;20198;-55
2023/04/18 06:26:06;;;;;;;28.03;17.73;;;;;;;11.91;100.00;99044.28;5086561;28;20680;-50
2023/04/18 06:28:35;;;;;;;30.73;19.30;;;;;;;12.00;100.00;99044.75;5091589;27;20211;-49
2023/04/18 06:31:07;;;;;;;31.00;17.57;;;;;;;12.04;100.00;99048.06;5105887;27;20670;-50
2023/04/18 06:33:56;;;;;;;27.40;16.60;;;;;;;12.04;100.00;99050.66;5105089;28;20675;-49
2023/04/18 06:36:40;;;;;;;30.70;18.33;;;;;;;12.13;100.00;99044.22;5107291;28;20198;-51
2023/04/18 06:39:37;;;;;;;30.50;17.07;;;;;;;12.05;100.00;99052.38;5108347;28;20194;-49
2023/04/18 06:42:26;;;;;;;25.40;15.73;;;;;;;12.07;100.00;99042.75;5109588;28;20257;-49
2023/04/18 06:45:04;;;;;;;26.93;16.87;;;;;;;12.12;100.00;99048.56;5097444;28;20195;-49
2023/04/18 06:47:41;;;;;;;26.97;16.50;;;;;;;12.24;100.00;99047.22;5098104;28;20218;-55
2023/04/18 06:50:24;;;;;;;22.83;16.80;;;;;;;12.28;100.00;99036.63;5096712;28;20766;-56
2023/04/18 06:53:01;;;;;;;25.40;17.13;;;;;;;12.41;100.00;99041.28;5094246;28;20198;-58
2023/04/18 06:55:41;;;;;;;27.00;18.60;;;;;;;12.53;100.00;99040.72;5096264;28;20226;-57
2023/04/18 06:58:12;;;;;;;27.27;17.93;;;;;;;12.54;100.00;99045.03;5099690;28;20592;-54
2023/04/18 07:01:07;;;;;;;26.53;16.83;;;;;;;12.66;100.00;99042.72;5100158;28;20274;-57
2023/04/18 07:03:51;;;;;;;23.93;16.43;;;;;;;12.87;100.00;99051.31;5099094;28;20197;-54
2023/04/18 07:06:28;;;;;;;25.43;16.10;;;;;;;12.98;100.00;99045.66;5108170;28;20198;-58
2023/04/18 07:09:06;;;;;;;24.77;15.67;;;;;;;13.26;100.00;99063.47;5102709;28;20222;-56
2023/04/18 07:11:51;;;;;;;23.53;16.47;;;;;;;13.35;100.00;99063.88;5088734;28;20223;-55
2023/04/18 07:14:41;;;;;;;22.57;16.53;;;;;;;13.53;100.00;99063.94;5087449;28;20239;-49
2023/04/18 07:17:33;;;;;;;23.50;16.40;;;;;;;13.61;100.00;99054.81;5088391;28;20690;-55
2023/04/18 07:20:17;;;;;;;20.77;15.60;;;;;;;13.93;100.00;99063.66;5089223;28;20748;-49
2023/04/18 07:23:03;;;;;;;21.90;16.50;;;;;;;14.28;100.00;99064.50;5084913;28;20202;-54
2023/04/18 07:25:57;;;;;;;17.93;15.87;;;;;;;14.63;100.00;99065.34;5089815;28;20195;-54
2023/04/18 07:28:52;;;;;;;24.03;16.73;;;;;;;15.09;100.00;99060.28;5087371;28;20227;-55
2023/04/18 07:31:40;;;;;;;27.33;17.03;;;;;;;15.27;100.00;99069.72;5089071;28;20635;-55
2023/04/18 07:34:47;;;;;;;21.70;16.47;;;;;;;15.54;100.00;99064.72;5088423;28;20196;-50
2023/04/18 07:37:44;;;;;;;25.00;17.00;;;;;;;15.86;100.00;99060.31;5087322;28;20195;-49
2023/04/18 07:40:42;;;;;;;23.30;16.93;;;;;;;16.24;100.00;99055.47;5088990;28;20203;-49
2023/04/18 07:43:38;;;;;;;24.97;17.17;;;;;;;16.88;100.00;99043.75;5088336;28;20262;-49
2023/04/18 07:46:16;;;;;;;25.03;16.53;;;;;;;17.95;100.00;99043.78;5086876;28;20195;-55
2023/04/18 07:48:55;;;;;;;20.27;16.35;;;;;;;19.03;100.00;99027.63;5096922;28;20476;-55
2023/04/18 07:51:33;;;;;;;24.83;15.60;;;;;;;20.58;97.25;99035.38;5093129;28;20272;-55
2023/04/18 07:54:26;;;;;;;16.60;13.55;;;;;;;22.17;86.98;99039.25;5091868;28;20295;-55
2023/04/18 07:57:12;;;;;;;14.18;12.68;;;;;;;23.55;77.18;99036.09;5091726;28;20615;-55
2023/04/18 07:59:52;;;;;;;14.27;11.88;;;;;;;24.17;71.76;99030.34;5100215;28;20230;-55
2023/04/18 08:02:35;;;;;;;13.23;11.73;;;;;;;23.79;71.72;99033.88;5112223;28;20245;-56
2023/04/18 08:05:16;;;;;;;14.93;13.45;;;;;;;23.01;74.70;99030.25;5112353;28;20264;-50
2023/04/18 08:08:07;;;;;;;16.60;14.80;;;;;;;21.78;78.45;99021.41;5102420;28;20262;-50
2023/04/18 08:10:57;;;;;;;18.27;14.50;;;;;;;21.15;79.67;99025.63;5091535;28;20290;-51
2023/04/18 08:13:54;;;;;;;17.52;14.43;;;;;;;20.44;81.98;99043.50;5087629;28;20202;-49
2023/04/18 08:16:45;;;;;;;17.63;14.88;;;;;;;19.86;84.52;99045.22;5091281;28;20230;-49
2023/04/18 08:19:25;;;;;;;19.83;16.15;;;;;;;19.76;85.31;99041.59;5097812;28;20264;-50
2023/04/18 08:22:17;;;;;;;22.10;15.85;;;;;;;19.27;88.56;99035.56;5091050;28;20199;-50
2023/04/18 08:25:18;;;;;;;21.75;17.35;;;;;;;18.67;92.02;99039.78;5089908;28;20693;-51
2023/04/18 08:28:00;;;;;;;22.45;17.00;;;;;;;18.22;93.97;99045.53;5095945;28;20228;-49
2023/04/18 08:30:36;;;;;;;20.92;16.05;;;;;;;17.76;94.39;99043.34;5111880;28;20215;-48
2023/04/18 08:33:14;;;;;;;19.65;13.80;;;;;;;17.37;96.39;99036.25;5112318;28;20233;-49
2023/04/18 08:36:10;;;;;;;16.23;13.50;;;;;;;17.12;97.93;99033.50;5110940;28;20643;-48
2023/04/18 08:39:06;;;;;;;20.65;14.23;;;;;;;16.79;100.00;99046.94;5110643;28;20611;-48
2023/04/18 08:42:05;;;;;;;17.30;13.20;;;;;;;16.47;100.00;99039.22;5111653;28;20286;-47
2023/04/18 08:44:52;;;;;;;13.77;12.43;;;;;;;16.13;100.00;99055.25;5112411;28;20198;-48
2023/04/18 08:47:43;;;;;;;16.17;12.13;;;;;;;15.86;100.00;99055.94;5110585;28;20194;-48
2023/04/18 08:50:42;;;;;;;15.50;13.03;;;;;;;15.60;100.00;99048.72;5110562;28;20285;-49
2023/04/18 08:53:42;;;;;;;19.70;14.40;;;;;;;15.34;100.00;99059.78;5111005;28;20203;-48
2023/04/18 08:56:45;;;;;;;19.20;13.50;;;;;;;15.06;100.00;99063.03;5112338;28;20285;-48
2023/04/18 09:02:45;;;;;;;23.20;13.43;;;;;;;14.63;100.00;99067.94;5106016;28;20206;-48
2023/04/18 09:05:47;;;;;;;19.37;14.30;;;;;;;14.40;100.00;99071.75;5109924;28;20678;-55
2023/04/18 09:08:51;;;;;;;21.10;14.07;;;;;;;14.18;100.00;99073.72;5110640;28;20258;-54
2023/04/18 09:11:47;;;;;;;20.50;14.43;;;;;;;14.07;100.00;99063.84;5108921;28;20285;-54
2023/04/18 09:14:26;;;;;;;21.23;13.93;;;;;;;13.97;100.00;99066.97;5109896;28;20662;-54
2023/04/18 09:17:25;;;;;;;22.90;15.80;;;;;;;13.85;100.00;99051.94;5111534;28;20225;-55
2023/04/18 09:20:00;;;;;;;24.40;13.80;;;;;;;13.76;100.00;99051.47;5108257;28;20195;-55
2023/04/18 09:22:47;;;;;;;22.73;14.43;;;;;;;13.68;100.00;99045.75;5098617;28;20222;-56
2023/04/18 09:25:38;;;;;;;22.43;13.13;;;;;;;13.66;100.00;99038.94;5099538;28;20256;-54
2023/04/18 09:28:42;;;;;;;19.80;15.17;;;;;;;13.56;100.00;99017.69;5090142;28;20226;-54
2023/04/18 09:31:46;;;;;;;23.37;15.77;;;;;;;13.49;100.00;99012.84;5089771;28;20303;-54
2023/04/18 09:34:40;;;;;;;27.17;16.67;;;;;;;13.42;100.00;99012.31;5088284;28;20671;-54
2023/04/18 09:37:32;;;;;;;22.90;16.47;;;;;;;13.33;100.00;99013.56;5089657;28;20282;-49
2023/04/18 09:40:39;;;;;;;;;;;;;;;;;;;;;
2023/04/18 09:43:34;;;;;;;21.07;15.30;;;;;;;13.40;100.00;99021.97;5089161;28;20226;-49
2023/04/18 09:46:16;;;;;;;21.67;14.47;;;;;;;13.38;100.00;99023.78;5089866;28;20218;-47
2023/04/18 09:49:04;;;;;;;23.13;14.70;;;;;;;13.38;100.00;99015.97;5089239;28;20603;-48
2023/04/18 09:51:43;;;;;;;29.20;16.00;;;;;;;13.24;100.00;98980.13;5089891;28;20195;-47
2023/04/18 09:54:31;;;;;;;25.30;16.73;;;;;;;13.25;100.00;98981.00;5089877;28;20203;-54
2023/04/18 09:57:21;;;;;;;32.73;17.33;;;;;;;13.21;100.00;98972.47;5089259;28;21056;-54
2023/04/18 10:00:19;;;;;;;30.63;19.40;;;;;;;13.25;100.00;98976.63;5089309;28;20202;-54
2023/04/18 10:03:11;;;;;;;32.97;18.73;;;;;;;13.31;100.00;99006.78;5089328;28;20198;-54
2023/04/18 10:06:10;;;;;;;28.23;18.40;;;;;;;13.20;100.00;99038.56;5089405;28;20203;-53
2023/04/18 10:08:41;;;;;;;37.13;21.10;;;;;;;13.07;100.00;99038.25;5089480;28;20215;-54
2023/04/18 10:11:22;;;;;;;34.53;19.63;;;;;;;12.96;100.00;99037.91;5089492;28;20568;-54
2023/04/18 10:14:14;;;;;;;34.97;20.90;;;;;;;12.79;100.00;99024.78;5089152;28;20203;-54
2023/04/18 10:16:55;;;;;;;40.73;21.20;;;;;;;12.82;100.00;99042.88;5087090;28;20195;-55
2023/04/18 10:19:40;;;;;;;31.73;20.23;;;;;;;12.78;100.00;99058.72;5089125;28;20199;-54
2023/04/18 10:22:29;;;;;;;33.10;20.20;;;;;;;12.73;100.00;99059.78;5089189;28;20273;-54
2023/04/18 10:25:09;;;;;;;28.87;18.80;;;;;;;12.73;100.00;99059.78;5096618;28;20287;-48
2023/04/18 10:28:13;;;;;;;26.03;17.67;;;;;;;12.71;100.00;99050.34;5092793;28;20217;-48
2023/04/18 10:31:06;;;;;;;29.37;18.03;;;;;;;12.72;100.00;99041.63;5093320;28;20214;-48
2023/04/18 10:33:44;;;;;;;37.33;19.70;;;;;;;12.69;100.00;99019.16;5109723;28;20275;-48
2023/04/18 10:36:33;;;;;;;30.23;18.60;;;;;;;12.84;100.00;99032.41;5104792;28;20215;-48
2023/04/18 10:39:29;;;;;;;30.73;18.47;;;;;;;12.97;100.00;99036.13;5089832;28;20667;-48
2023/04/18 10:42:13;;;;;;;30.70;18.40;;;;;;;13.20;100.00;99027.28;5086212;28;20235;-48
2023/04/18 10:45:35;;;;;;;30.43;19.13;;;;;;;13.45;100.00;99018.19;5089672;28;20202;-47
2023/04/18 10:48:37;;;;;;;27.43;18.00;;;;;;;13.66;100.00;99039.78;5089383;28;20195;-48
2023/04/18 10:51:27;;;;;;;29.97;18.17;;;;;;;13.72;100.00;99031.66;5088305;28;20218;-47
2023/04/18 10:54:07;;;;;;;32.20;19.73;;;;;;;13.84;100.00;99031.97;5088677;28;20195;-54
2023/04/18 10:57:07;;;;;;;38.80;21.03;;;;;;;13.82;100.00;99027.69;5089748;28;20281;-54
2023/04/18 11:00:08;;;;;;;31.43;20.50;;;;;;;13.69;100.00;99030.97;5089971;28;20260;-55
2023/04/18 11:03:27;;;;;;;32.53;20.00;;;;;;;13.64;100.00;99022.53;5089636;28;20663;-54
2023/04/18 11:08:53;;;;;;;37.47;21.10;;;;;;;13.95;100.00;99021.84;5093276;28;20344;-55
2023/04/18 11:11:43;;;;;;;39.00;21.30;;;;;;;13.96;100.00;99018.31;5109639;28;20203;-55
2023/04/18 11:14:20;;;;;;;32.50;21.30;;;;;;;13.94;100.00;99021.00;5099028;28;20861;-54
2023/04/18 11:16:53;;;;;;;31.33;21.87;;;;;;;13.92;100.00;99022.00;5093286;28;20191;-54
2023/04/18 11:19:27;;;;;;;32.20;20.80;;;;;;;14.05;100.00;99023.91;5095039;28;20635;-55
2023/04/18 11:22:13;;;;;;;32.10;20.70;;;;;;;14.05;100.00;99020.47;5096399;28;20190;-54
2023/04/18 11:24:48;;;;;;;31.00;20.90;;;;;;;14.12;100.00;99014.00;5099989;28;20205;-54
2023/04/18 11:27:18;;;;;;;30.63;21.57;;;;;;;14.13;100.00;99013.09;5103466;28;20194;-50
2023/04/18 11:30:11;;;;;;;36.60;22.37;;;;;;;14.19;100.00;99007.56;5102722;28;20217;-49
2023/04/18 11:32:50;;;;;;;36.80;23.07;;;;;;;14.12;100.00;99008.78;5102281;28;20193;-48
2023/04/18 11:35:25;;;;;;;39.20;24.03;;;;;;;14.19;100.00;99010.19;5100593;28;20202;-48
2023/04/18 11:38:06;;;;;;;37.70;22.13;;;;;;;14.22;100.00;99007.38;5101314;28;20577;-48
2023/04/18 11:40:43;;;;;;;37.50;23.07;;;;;;;14.24;100.00;99002.09;5100795;28;20559;-54
2023/04/18 11:43:28;;;;;;;37.60;23.77;;;;;;;14.25;100.00;98998.56;5100532;28;20283;-55
2023/04/18 11:46:18;;;;;;;39.43;22.97;;;;;;;14.40;100.00;98997.78;5100975;28;20276;-53
2023/04/18 11:48:52;;;;;;;34.70;22.50;;;;;;;14.50;100.00;98999.00;5110083;28;20778;-54
2023/04/18 11:51:46;;;;;;;38.47;23.27;;;;;;;14.51;100.00;98996.31;5109080;28;20257;-53
2023/04/18 11:54:45;;;;;;;33.33;22.37;;;;;;;14.53;100.00;98989.25;5110733;28;20752;-53
2023/04/18 11:57:35;;;;;;;37.10;23.83;;;;;;;14.50;100.00;98989.41;5112829;28;20611;-54
2023/04/18 12:00:13;;;;;;;38.03;22.30;;;;;;;14.33;100.00;98996.41;5112006;28;20675;-53
2023/04/18 12:02:59;;;;;;;39.43;22.43;;;;;;;14.18;100.00;98993.66;5094872;28;20310;-54
2023/04/18 12:05:39;;;;;;;31.20;21.60;;;;;;;14.04;100.00;98984.84;5102082;28;20224;-54
2023/04/18 12:08:31;;;;;;;32.20;21.93;;;;;;;14.03;100.00;98980.56;5112475;28;20195;-54
2023/04/18 12:11:28;;;;;;;33.67;20.80;;;;;;;14.09;100.00;98975.03;5110448;28;20228;-54
2023/04/18 12:17:29;;;;;;;33.77;20.93;;;;;;;14.21;100.00;98973.56;5111478;28;20234;-55
2023/04/18 12:23:49;;;;;;;33.83;20.00;;;;;;;14.29;100.00;98964.41;5110183;28;20206;-55
2023/04/18 12:26:36;;;;;;;24.87;17.40;;;;;;;14.23;100.00;98969.91;5111999;28;20198;-54
2023/04/18 12:29:23;;;;;;;21.17;15.30;;;;;;;14.23;100.00;98969.06;5111651;28;20227;-54
2023/04/18 12:32:15;;;;;;;23.43;16.70;;;;;;;14.23;100.00;98969.91;5111818;28;20195;-55
2023/04/18 12:35:06;;;;;;;21.13;15.17;;;;;;;14.22;100.00;98963.00;5112894;28;20650;-54
2023/04/18 12:38:20;;;;;;;;;;;;;;;;;;;;;
2023/04/18 12:41:06;;;;;;;19.23;14.63;;;;;;;14.34;100.00;98966.75;5106431;28;20207;-48
2023/04/18 12:43:58;;;;;;;21.37;14.40;;;;;;;14.39;100.00;98957.78;5112187;28;20230;-48
2023/04/18 12:46:43;;;;;;;19.63;15.03;;;;;;;14.47;100.00;98963.44;5110684;28;20202;-48
2023/04/18 12:49:34;;;;;;;23.03;16.03;;;;;;;14.47;100.00;98953.00;5112349;28;20221;-49
2023/04/18 12:52:30;;;;;;;21.07;14.53;;;;;;;14.40;100.00;98959.47;5109447;28;20234;-49
2023/04/18 12:55:21;;;;;;;17.83;12.90;;;;;;;14.43;100.00;98956.72;5109782;28;20749;-48
2023/04/18 12:58:17;;;;;;;21.60;14.43;;;;;;;14.22;100.00;98957.78;5108682;28;20626;-48
2023/04/18 13:01:06;;;;;;;19.67;14.50;;;;;;;14.17;100.00;98959.81;5112091;28;20191;-48
2023/04/18 13:03:51;;;;;;;19.40;13.47;;;;;;;14.08;100.00;98962.91;5112101;28;20218;-48
2023/04/18 13:06:43;;;;;;;16.90;13.60;;;;;;;14.04;100.00;98971.81;5110241;28;20198;-48
2023/04/18 13:09:34;;;;;;;14.87;12.20;;;;;;;13.90;100.00;98971.66;5111742;28;20310;-54
2023/04/18 13:12:29;;;;;;;17.83;13.10;;;;;;;13.79;100.00;98983.47;5109372;28;20199;-54
2023/04/18 13:15:18;;;;;;;16.40;12.67;;;;;;;13.75;100.00;98979.38;5111280;28;20745;-54
2023/04/18 13:18:11;;;;;;;19.43;13.90;;;;;;;13.81;100.00;98980.81;5111092;28;20234;-54
2023/04/18 13:20:55;;;;;;;18.33;13.63;;;;;;;13.76;100.00;98981.06;5111200;28;20197;-54
2023/04/18 13:23:49;;;;;;;24.00;15.17;;;;;;;13.64;100.00;98973.84;5110369;28;20198;-53
2023/04/18 13:26:51;;;;;;;19.40;13.47;;;;;;;13.59;100.00;98978.41;5109951;28;20560;-48
2023/04/18 13:29:45;;;;;;;23.27;14.77;;;;;;;13.59;100.00;98973.22;5110310;28;20252;-48
2023/04/18 13:32:42;;;;;;;21.20;14.10;;;;;;;13.43;100.00;98985.31;5110905;28;20203;-48
2023/04/18 13:35:31;;;;;;;22.00;15.13;;;;;;;13.33;100.00;98976.25;5110533;28;20195;-47
2023/04/18 13:38:24;;;;;;;22.63;15.80;;;;;;;13.16;100.00;98968.41;5111008;28;20195;-48